createdAt,value
2017-05-23T00:02:05.035Z,14.90
2017-05-23T00:04:33.524Z,14.80
2017-05-23T00:07:01.791Z,14.80
2017-05-23T00:09:30.059Z,14.80
2017-05-23T00:11:58.359Z,14.80
2017-05-23T00:14:26.631Z,14.80
2017-05-23T00:16:55.098Z,14.70
2017-05-23T00:19:23.367Z,14.70
2017-05-23T00:21:51.642Z,14.70
2017-05-23T00:24:19.941Z,14.70
2017-05-23T00:26:48.216Z,14.70
2017-05-23T00:29:16.682Z,14.60
2017-05-23T00:31:44.954Z,14.60
2017-05-23T00:34:13.231Z,14.60
2017-05-23T00:36:41.534Z,14.60
2017-05-23T00:39:09.835Z,14.50
2017-05-23T00:41:38.471Z,14.50
2017-05-23T00:44:06.742Z,14.50
2017-05-23T00:46:35.075Z,14.50
2017-05-23T00:49:03.371Z,14.50
2017-05-23T00:51:31.643Z,14.50
2017-05-23T00:54:00.154Z,14.50
2017-05-23T00:56:28.534Z,14.50
2017-05-23T00:58:56.811Z,14.50
2017-05-23T01:01:25.115Z,14.50
2017-05-23T01:03:53.386Z,14.50
2017-05-23T01:06:22.052Z,14.50
2017-05-23T01:08:50.432Z,14.50
2017-05-23T01:11:18.799Z,14.50
2017-05-23T01:13:47.283Z,14.50
2017-05-23T01:16:15.558Z,14.50
2017-05-23T01:18:43.845Z,14.50
2017-05-23T01:21:12.327Z,14.50
2017-05-23T01:23:40.602Z,14.50
2017-05-23T01:26:08.872Z,14.50
2017-05-23T01:28:37.171Z,14.60
2017-05-23T01:31:05.442Z,14.60
2017-05-23T01:33:33.894Z,14.60
2017-05-23T01:36:02.174Z,14.60
2017-05-23T01:38:30.458Z,14.60
2017-05-23T01:40:59.034Z,14.60
2017-05-23T01:43:27.299Z,14.60
2017-05-23T01:45:55.570Z,14.60
2017-05-23T01:48:24.059Z,14.60
2017-05-23T01:50:52.338Z,14.60
2017-05-23T01:53:20.624Z,14.60
2017-05-23T01:55:48.922Z,14.60
2017-05-23T01:58:17.194Z,14.60
2017-05-23T02:00:45.496Z,14.60
2017-05-23T02:03:13.771Z,14.60
2017-05-23T02:05:42.194Z,14.60
2017-05-23T02:08:10.463Z,14.60
2017-05-23T02:10:38.743Z,14.60
2017-05-23T02:13:07.043Z,14.60
2017-05-23T02:15:35.399Z,14.60
2017-05-23T02:18:03.890Z,14.60
2017-05-23T02:20:32.172Z,14.50
2017-05-23T02:23:00.447Z,14.50
2017-05-23T02:25:28.755Z,14.50
2017-05-23T02:27:57.036Z,14.50
2017-05-23T02:30:25.362Z,14.40
2017-05-23T02:32:53.637Z,14.40
2017-05-23T02:35:22.123Z,14.40
2017-05-23T02:37:50.399Z,14.40
2017-05-23T02:40:18.727Z,14.50
2017-05-23T02:42:47.247Z,14.40
2017-05-23T02:45:15.531Z,14.40
2017-05-23T02:47:44.946Z,14.40
2017-05-23T02:50:14.682Z,14.40
2017-05-23T02:52:42.968Z,14.40
2017-05-23T02:55:12.323Z,14.40
2017-05-23T02:57:40.696Z,14.30
2017-05-23T03:00:08.995Z,14.30
2017-05-23T03:02:37.428Z,14.30
2017-05-23T03:05:05.731Z,14.30
2017-05-23T03:07:34.040Z,14.30
2017-05-23T03:10:02.386Z,14.20
2017-05-23T03:12:30.663Z,14.30
2017-05-23T03:14:58.940Z,14.20
2017-05-23T03:17:27.258Z,14.20
2017-05-23T03:19:55.555Z,14.20
2017-05-23T03:22:23.870Z,14.20
2017-05-23T03:24:52.193Z,14.10
2017-05-23T03:27:20.475Z,14.20
2017-05-23T03:29:49.163Z,14.20
2017-05-23T03:32:17.466Z,14.20
2017-05-23T03:34:45.956Z,14.20
2017-05-23T03:37:14.237Z,14.20
2017-05-23T03:39:42.523Z,14.20
2017-05-23T03:42:10.889Z,14.20
2017-05-23T03:44:39.167Z,14.20
2017-05-23T03:47:07.851Z,14.20
2017-05-23T03:49:36.178Z,14.20
2017-05-23T03:52:04.495Z,14.30
2017-05-23T03:54:32.844Z,14.30
2017-05-23T03:57:01.131Z,14.30
2017-05-23T03:59:29.637Z,14.40
2017-05-23T04:01:57.916Z,14.50
2017-05-23T04:04:26.194Z,14.50
2017-05-23T04:06:54.495Z,14.60
2017-05-23T04:09:22.775Z,14.80
2017-05-23T04:11:51.079Z,14.90
2017-05-23T04:14:19.359Z,15.10
2017-05-23T04:16:47.771Z,15.20
2017-05-23T04:19:16.056Z,15.40
2017-05-23T04:21:44.342Z,15.50
2017-05-23T04:24:12.671Z,15.60
2017-05-23T04:26:40.953Z,15.80
2017-05-23T04:29:09.783Z,16.00
2017-05-23T04:31:38.064Z,16.10
2017-05-23T04:34:06.342Z,16.30
2017-05-23T04:36:34.651Z,16.40
2017-05-23T04:39:02.972Z,16.50
2017-05-23T04:41:31.447Z,16.70
2017-05-23T04:43:59.731Z,16.90
2017-05-23T04:46:28.015Z,17.10
2017-05-23T04:48:56.374Z,17.20
2017-05-23T04:51:24.658Z,17.30
2017-05-23T04:53:52.997Z,17.40
2017-05-23T04:56:21.287Z,17.50
2017-05-23T04:58:49.806Z,17.60
2017-05-23T05:01:18.159Z,17.60
2017-05-23T05:03:46.467Z,17.70
2017-05-23T05:06:14.783Z,17.70
2017-05-23T05:08:43.064Z,17.70
2017-05-23T05:11:11.628Z,17.80
2017-05-23T05:13:39.927Z,17.90
2017-05-23T05:16:08.215Z,18.00
2017-05-23T05:18:36.612Z,18.00
2017-05-23T05:21:04.935Z,18.20
2017-05-23T05:23:33.460Z,18.30
2017-05-23T05:26:01.743Z,18.40
2017-05-23T05:28:30.023Z,18.60
2017-05-23T05:30:58.397Z,18.70
2017-05-23T05:33:26.678Z,18.80
2017-05-23T05:35:55.360Z,18.90
2017-05-23T05:38:24.056Z,19.10
2017-05-23T05:40:52.345Z,19.10
2017-05-23T05:43:20.643Z,19.30
2017-05-23T05:45:49.146Z,19.50
2017-05-23T05:48:17.570Z,19.70
2017-05-23T05:50:45.863Z,19.70
2017-05-23T05:53:14.195Z,19.80
2017-05-23T05:55:42.858Z,19.80
2017-05-23T05:58:11.167Z,19.70
2017-05-23T06:00:39.446Z,19.60
2017-05-23T06:03:07.746Z,19.50
2017-05-23T06:05:36.025Z,19.50
2017-05-23T06:08:04.670Z,19.50
2017-05-23T06:10:32.954Z,19.50
2017-05-23T06:13:07.167Z,19.50
2017-05-23T06:15:35.453Z,19.60
2017-05-23T06:18:03.968Z,19.60
2017-05-23T06:20:32.376Z,19.70
2017-05-23T06:23:00.658Z,19.70
2017-05-23T06:25:28.938Z,19.80
2017-05-23T06:27:57.426Z,19.80
2017-05-23T06:30:25.816Z,19.80
2017-05-23T06:32:54.101Z,19.90
2017-05-23T06:35:22.411Z,19.90
2017-05-23T06:37:50.687Z,20.00
2017-05-23T06:40:18.999Z,20.10
2017-05-23T06:42:47.283Z,20.30
2017-05-23T06:45:15.692Z,20.50
2017-05-23T06:47:43.983Z,20.50
2017-05-23T06:50:12.329Z,20.60
2017-05-23T06:52:40.743Z,20.60
2017-05-23T06:55:09.023Z,20.70
2017-05-23T06:57:37.303Z,20.70
2017-05-23T07:00:05.019Z,20.60
2017-05-23T07:02:33.316Z,20.50
2017-05-23T07:05:01.597Z,20.50
2017-05-23T07:07:29.922Z,20.40
2017-05-23T07:09:58.202Z,20.40
2017-05-23T07:12:26.519Z,20.40
2017-05-23T07:14:54.883Z,20.40
2017-05-23T07:17:23.191Z,20.50
2017-05-23T07:19:51.471Z,20.60
2017-05-23T07:22:20.422Z,20.70
2017-05-23T07:24:48.699Z,20.70
2017-05-23T07:27:16.990Z,20.80
2017-05-23T07:29:45.319Z,20.90
2017-05-23T07:32:13.598Z,20.90
2017-05-23T07:34:41.876Z,20.90
2017-05-23T07:37:10.261Z,20.90
2017-05-23T07:39:38.535Z,21.00
2017-05-23T07:42:06.832Z,21.10
2017-05-23T07:44:35.159Z,21.20
2017-05-23T07:47:03.432Z,21.20
2017-05-23T07:49:31.867Z,21.20
2017-05-23T07:52:00.142Z,21.30
2017-05-23T07:54:28.420Z,21.40
2017-05-23T07:56:56.735Z,21.40
2017-05-23T07:59:25.015Z,21.50
2017-05-23T08:01:53.343Z,21.60
2017-05-23T08:04:21.618Z,21.70
2017-05-23T08:06:49.951Z,21.70
2017-05-23T08:09:18.224Z,21.80
2017-05-23T08:11:46.571Z,21.90
2017-05-23T08:14:14.926Z,22.00
2017-05-23T08:16:43.201Z,22.00
2017-05-23T08:19:11.559Z,22.10
2017-05-23T08:21:39.831Z,22.20
2017-05-23T08:24:08.098Z,22.20
2017-05-23T08:26:36.859Z,22.40
2017-05-23T08:29:05.131Z,22.40
2017-05-23T08:31:33.403Z,22.50
2017-05-23T08:34:01.717Z,22.60
2017-05-23T08:36:29.994Z,22.70
2017-05-23T08:38:58.324Z,22.90
2017-05-23T08:41:26.635Z,23.00
2017-05-23T08:43:54.925Z,23.10
2017-05-23T08:46:23.338Z,23.30
2017-05-23T08:48:51.679Z,23.50
2017-05-23T08:51:19.994Z,23.50
2017-05-23T08:53:48.267Z,23.60
2017-05-23T08:56:16.598Z,23.90
2017-05-23T08:58:44.896Z,24.20
2017-05-23T09:01:13.184Z,24.60
2017-05-23T09:03:41.515Z,25.00
2017-05-23T09:06:09.791Z,25.20
2017-05-23T09:08:38.071Z,25.30
2017-05-23T09:11:06.387Z,25.40
2017-05-23T09:13:34.667Z,25.40
2017-05-23T09:16:03.025Z,25.30
2017-05-23T09:18:31.315Z,25.20
2017-05-23T09:21:00.621Z,25.00
2017-05-23T09:23:28.903Z,25.00
2017-05-23T09:26:16.983Z,24.90
2017-05-23T09:28:45.263Z,24.70
2017-05-23T09:31:13.539Z,24.50
2017-05-23T09:33:41.863Z,24.50
2017-05-23T09:36:10.147Z,24.50
2017-05-23T09:38:38.422Z,24.50
2017-05-23T09:41:06.755Z,24.50
2017-05-23T09:43:35.064Z,24.40
2017-05-23T09:46:03.342Z,24.40
2017-05-23T09:48:31.662Z,24.50
2017-05-23T09:50:59.948Z,24.50
2017-05-23T09:53:28.272Z,24.50
2017-05-23T09:55:56.547Z,24.50
2017-05-23T09:58:24.952Z,24.70
2017-05-23T10:00:53.239Z,24.70
2017-05-23T10:03:21.587Z,24.80
2017-05-23T10:05:49.859Z,24.80
2017-05-23T10:08:18.139Z,24.90
2017-05-23T10:10:46.507Z,25.00
2017-05-23T10:13:14.852Z,25.20
2017-05-23T10:15:43.155Z,25.20
2017-05-23T10:18:11.447Z,25.20
2017-05-23T10:20:39.787Z,25.40
2017-05-23T10:23:08.100Z,25.60
2017-05-23T10:25:36.379Z,25.90
2017-05-23T10:28:04.715Z,26.30
2017-05-23T10:30:32.995Z,26.50
2017-05-23T10:33:01.293Z,26.60
2017-05-23T10:35:29.623Z,26.70
2017-05-23T10:37:57.909Z,26.90
2017-05-23T10:40:26.191Z,27.30
2017-05-23T10:42:54.523Z,27.60
2017-05-23T10:45:22.802Z,27.90
2017-05-23T10:47:51.131Z,28.10
2017-05-23T10:50:19.415Z,28.20
2017-05-23T10:52:47.702Z,28.40
2017-05-23T10:55:16.050Z,28.80
2017-05-23T10:57:44.332Z,28.90
2017-05-23T11:00:12.610Z,29.10
2017-05-23T11:02:41.100Z,29.10
2017-05-23T11:05:09.378Z,29.10
2017-05-23T11:07:37.759Z,28.90
2017-05-23T11:10:06.035Z,28.50
2017-05-23T11:12:34.312Z,28.10
2017-05-23T11:15:02.660Z,27.90
2017-05-23T11:17:30.946Z,27.70
2017-05-23T11:19:59.223Z,27.40
2017-05-23T11:22:27.539Z,27.20
2017-05-23T11:24:56.451Z,27.00
2017-05-23T11:27:24.800Z,26.80
2017-05-23T11:29:53.082Z,26.70
2017-05-23T11:32:21.404Z,26.50
2017-05-23T11:34:49.679Z,26.50
2017-05-23T11:37:17.964Z,26.40
2017-05-23T11:39:46.314Z,26.50
2017-05-23T11:42:14.584Z,26.60
2017-05-23T11:44:42.867Z,26.70
2017-05-23T11:47:11.205Z,26.90
2017-05-23T11:49:39.475Z,27.20
2017-05-23T11:52:07.807Z,27.40
2017-05-23T11:54:36.079Z,27.60
2017-05-23T11:57:04.359Z,27.60
2017-05-23T11:59:32.691Z,27.70
2017-05-23T12:02:00.979Z,27.70
2017-05-23T12:04:29.278Z,27.30
2017-05-23T12:06:57.603Z,27.30
2017-05-23T12:09:25.882Z,27.40
2017-05-23T12:11:54.159Z,27.60
2017-05-23T12:14:22.500Z,27.80
2017-05-23T12:16:50.042Z,27.70
2017-05-23T12:19:18.324Z,28.00
2017-05-23T12:21:46.680Z,27.90
2017-05-23T12:24:14.967Z,27.90
2017-05-23T12:26:43.260Z,28.10
2017-05-23T12:29:11.594Z,28.30
2017-05-23T12:31:39.914Z,28.50
2017-05-23T12:34:08.252Z,28.50
2017-05-23T12:36:36.595Z,28.80
2017-05-23T12:39:04.885Z,28.90
2017-05-23T12:41:33.170Z,28.70
2017-05-23T12:44:01.526Z,28.40
2017-05-23T12:46:29.809Z,28.40
2017-05-23T12:48:58.091Z,28.60
2017-05-23T12:51:26.415Z,28.60
2017-05-23T12:53:54.844Z,28.50
2017-05-23T12:56:23.167Z,28.40
2017-05-23T12:58:51.446Z,28.50
2017-05-23T13:01:19.779Z,28.50
2017-05-23T13:03:48.065Z,28.70
2017-05-23T13:06:16.353Z,28.80
2017-05-23T13:08:44.688Z,28.90
2017-05-23T13:11:12.969Z,28.90
2017-05-23T13:13:41.253Z,28.60
2017-05-23T13:16:09.586Z,28.20
2017-05-23T13:18:37.871Z,27.70
2017-05-23T13:21:06.147Z,27.40
2017-05-23T13:23:34.518Z,27.30
2017-05-23T13:26:02.800Z,27.40
2017-05-23T13:28:31.214Z,27.50
2017-05-23T13:30:59.495Z,27.50
2017-05-23T13:33:27.780Z,27.70
2017-05-23T13:35:56.115Z,27.80
2017-05-23T13:38:24.403Z,27.60
2017-05-23T13:43:27.490Z,27.60
2017-05-23T13:45:55.796Z,27.70
2017-05-23T13:48:24.072Z,28.00
2017-05-23T13:50:52.403Z,28.10
2017-05-23T13:53:20.684Z,28.30
2017-05-23T13:55:48.977Z,28.40
2017-05-23T13:58:17.303Z,28.50
2017-05-23T14:00:45.591Z,28.40
2017-05-23T14:03:13.932Z,28.40
2017-05-23T14:05:42.255Z,28.30
2017-05-23T14:08:10.534Z,28.30
2017-05-23T14:10:38.964Z,28.00
2017-05-23T14:13:07.244Z,27.80
2017-05-23T14:15:35.522Z,28.00
2017-05-23T14:18:03.843Z,28.00
2017-05-23T14:20:32.118Z,27.80
2017-05-23T14:23:00.405Z,27.50
2017-05-23T14:25:28.726Z,27.50
2017-05-23T14:27:57.007Z,27.50
2017-05-23T14:30:25.354Z,27.40
2017-05-23T14:32:53.630Z,27.20
2017-05-23T14:35:21.922Z,27.10
2017-05-23T14:37:50.267Z,27.00
2017-05-23T14:40:18.559Z,27.20
2017-05-23T14:42:46.835Z,27.30
2017-05-23T14:45:15.183Z,27.40
2017-05-23T14:47:43.471Z,27.60
2017-05-23T14:50:11.785Z,27.20
2017-05-23T14:52:40.115Z,27.40
2017-05-23T14:55:08.399Z,27.60
2017-05-23T14:57:36.752Z,27.50
2017-05-23T15:00:05.034Z,27.20
2017-05-23T15:02:33.327Z,27.20
2017-05-23T15:05:01.651Z,27.20
2017-05-23T15:07:29.999Z,27.30
2017-05-23T15:09:58.275Z,27.30
2017-05-23T15:12:26.554Z,27.30
2017-05-23T15:14:54.898Z,27.40
2017-05-23T15:17:23.260Z,27.40
2017-05-23T15:19:51.534Z,27.30
2017-05-23T15:22:19.814Z,27.00
2017-05-23T15:24:48.126Z,26.70
2017-05-23T15:27:16.445Z,26.20
2017-05-23T15:29:44.807Z,25.90
2017-05-23T15:32:13.086Z,25.80
2017-05-23T15:34:41.372Z,25.90
2017-05-23T15:37:09.705Z,26.00
2017-05-23T15:39:37.987Z,25.90
2017-05-23T15:42:06.266Z,25.70
2017-05-23T15:44:34.588Z,25.60
2017-05-23T15:47:02.914Z,25.70
2017-05-23T15:49:31.210Z,25.70
2017-05-23T15:51:59.502Z,25.70
2017-05-23T15:54:27.822Z,25.70
2017-05-23T15:56:56.149Z,25.70
2017-05-23T15:59:24.435Z,25.80
2017-05-23T16:01:52.715Z,25.90
2017-05-23T16:04:21.035Z,25.80
2017-05-23T16:06:49.327Z,25.80
2017-05-23T16:09:17.678Z,26.00
2017-05-23T16:11:45.963Z,25.90
2017-05-23T16:14:14.247Z,25.60
2017-05-23T16:16:43.490Z,25.70
2017-05-23T16:19:11.767Z,25.80
2017-05-23T16:21:40.118Z,26.10
2017-05-23T16:24:08.410Z,26.20
2017-05-23T16:26:36.699Z,26.30
2017-05-23T16:29:05.019Z,26.50
2017-05-23T16:31:33.408Z,26.50
2017-05-23T16:34:01.763Z,26.40
2017-05-23T16:36:30.035Z,26.30
2017-05-23T16:38:58.310Z,26.20
2017-05-23T16:41:26.635Z,26.00
2017-05-23T16:43:54.911Z,25.80
2017-05-23T16:46:23.242Z,25.50
2017-05-23T16:48:51.549Z,25.30
2017-05-23T16:51:19.858Z,25.20
2017-05-23T16:53:48.207Z,25.20
2017-05-23T16:56:16.520Z,25.20
2017-05-23T16:58:44.847Z,25.20
2017-05-23T17:01:13.126Z,25.20
2017-05-23T17:03:41.399Z,25.10
2017-05-23T17:06:09.775Z,24.80
2017-05-23T17:08:38.112Z,24.50
2017-05-23T17:11:06.384Z,24.30
2017-05-23T17:13:34.851Z,24.00
2017-05-23T17:16:03.180Z,23.90
2017-05-23T17:18:31.492Z,23.80
2017-05-23T17:20:59.772Z,23.50
2017-05-23T17:23:28.120Z,23.30
2017-05-23T17:25:56.413Z,23.10
2017-05-23T17:28:24.802Z,22.90
2017-05-23T17:30:53.126Z,22.70
2017-05-23T17:33:21.464Z,22.60
2017-05-23T17:35:49.748Z,22.50
2017-05-23T17:38:18.027Z,22.20
2017-05-23T17:40:46.386Z,22.10
2017-05-23T17:43:14.671Z,22.00
2017-05-23T17:45:42.955Z,22.00
2017-05-23T17:48:11.286Z,21.90
2017-05-23T17:50:39.581Z,21.70
2017-05-23T17:53:07.872Z,21.60
2017-05-23T17:55:36.227Z,21.50
2017-05-23T17:58:04.512Z,21.30
2017-05-23T18:00:32.795Z,21.20
2017-05-23T18:03:01.119Z,21.20
2017-05-23T18:05:29.398Z,21.10
2017-05-23T18:07:56.953Z,21.10
2017-05-23T18:10:25.295Z,21.00
2017-05-23T18:12:53.575Z,20.90
2017-05-23T18:15:21.855Z,20.80
2017-05-23T18:17:50.252Z,20.70
2017-05-23T18:20:18.627Z,20.50
2017-05-23T18:22:46.970Z,20.30
2017-05-23T18:25:15.259Z,20.10
2017-05-23T18:27:43.539Z,19.90
2017-05-23T18:30:11.883Z,19.80
2017-05-23T18:32:40.184Z,19.60
2017-05-23T18:35:08.568Z,19.40
2017-05-23T18:37:36.911Z,19.20
2017-05-23T18:40:05.199Z,19.10
2017-05-23T18:42:33.519Z,18.90
2017-05-23T18:45:01.848Z,18.90
2017-05-23T18:47:30.136Z,18.80
2017-05-23T18:49:58.420Z,18.70
2017-05-23T18:52:26.741Z,18.50
2017-05-23T18:54:55.071Z,18.50
2017-05-23T18:57:23.348Z,18.40
2017-05-23T18:59:51.667Z,18.40
2017-05-23T19:02:20.014Z,18.30
2017-05-23T19:04:48.304Z,18.30
2017-05-23T19:07:16.587Z,18.30
2017-05-23T19:09:44.915Z,18.20
2017-05-23T19:12:13.188Z,18.20
2017-05-23T19:14:42.175Z,18.20
2017-05-23T19:17:10.455Z,18.20
2017-05-23T19:19:39.059Z,18.10
2017-05-23T19:22:07.330Z,18.00
2017-05-23T19:24:35.655Z,18.00
2017-05-23T19:27:03.997Z,17.80
2017-05-23T19:29:32.335Z,17.70
2017-05-23T19:32:00.609Z,17.50
2017-05-23T19:34:28.939Z,17.40
2017-05-23T19:36:57.228Z,17.30
2017-05-23T19:39:25.603Z,17.20
2017-05-23T19:41:53.882Z,17.10
2017-05-23T19:44:22.160Z,17.10
2017-05-23T19:46:50.486Z,17.00
2017-05-23T19:49:18.759Z,16.90
2017-05-23T19:51:47.046Z,16.80
2017-05-23T19:54:15.359Z,16.80
2017-05-23T19:56:43.631Z,16.70
2017-05-23T19:59:11.912Z,16.70
2017-05-23T20:01:40.239Z,16.60
2017-05-23T20:04:08.508Z,16.50
2017-05-23T20:06:36.775Z,16.40
2017-05-23T20:09:05.120Z,16.40
2017-05-23T20:11:33.429Z,16.30
2017-05-23T20:14:01.704Z,16.30
2017-05-23T20:16:30.051Z,16.20
2017-05-23T20:18:58.340Z,16.10
2017-05-23T20:21:26.627Z,16.00
2017-05-23T20:23:54.987Z,16.00
2017-05-23T20:26:23.262Z,16.00
2017-05-23T20:28:51.535Z,15.90
2017-05-23T20:31:19.851Z,15.90
2017-05-23T20:33:48.122Z,15.80
2017-05-23T20:36:16.399Z,15.80
2017-05-23T20:38:44.754Z,15.80
2017-05-23T20:41:13.027Z,15.70
2017-05-23T20:43:41.307Z,15.70
2017-05-23T20:46:09.632Z,15.70
2017-05-23T20:48:37.905Z,15.70
2017-05-23T20:51:06.182Z,15.60
2017-05-23T20:53:34.734Z,15.60
2017-05-23T20:56:03.019Z,15.50
2017-05-23T20:58:31.292Z,15.40
2017-05-23T21:00:59.623Z,15.40
2017-05-23T21:03:27.950Z,15.30
2017-05-23T21:05:56.228Z,15.20
2017-05-23T21:08:24.551Z,15.20
2017-05-23T21:10:52.823Z,15.10
2017-05-23T21:13:21.096Z,15.10
2017-05-23T21:15:49.427Z,15.10
2017-05-23T21:18:17.699Z,15.00
2017-05-23T21:20:45.984Z,15.00
2017-05-23T21:23:14.318Z,14.90
2017-05-23T21:25:43.205Z,14.90
2017-05-23T21:28:11.516Z,14.80
2017-05-23T21:30:39.074Z,14.80
2017-05-23T21:33:07.380Z,14.80
2017-05-23T21:35:35.655Z,14.70
2017-05-23T21:38:03.964Z,14.70
2017-05-23T21:40:32.297Z,14.60
2017-05-23T21:43:00.570Z,14.60
2017-05-23T21:45:28.838Z,14.50
2017-05-23T21:47:57.159Z,14.50
2017-05-23T21:50:25.431Z,14.40
2017-05-23T21:52:53.711Z,14.40
2017-05-23T21:55:22.035Z,14.40
2017-05-23T21:57:50.310Z,14.30
2017-05-23T22:00:18.587Z,14.30
2017-05-23T22:02:46.912Z,14.30
2017-05-23T22:05:15.179Z,14.20
2017-05-23T22:07:43.452Z,14.20
2017-05-23T22:10:11.773Z,14.20
2017-05-23T22:12:40.096Z,14.20
2017-05-23T22:15:08.379Z,14.10
2017-05-23T22:17:36.651Z,14.00
2017-05-23T22:20:04.998Z,14.00
2017-05-23T22:22:33.271Z,13.90
2017-05-23T22:25:01.544Z,13.90
2017-05-23T22:27:29.866Z,13.90
2017-05-23T22:29:58.143Z,13.80
2017-05-23T22:32:26.418Z,13.90
2017-05-23T22:34:54.740Z,13.90
2017-05-23T22:37:23.011Z,13.80
2017-05-23T22:39:51.289Z,13.80
2017-05-23T22:42:19.599Z,13.70
2017-05-23T22:44:47.938Z,13.70
2017-05-23T22:47:16.215Z,13.60
2017-05-23T22:49:44.483Z,13.60
2017-05-23T22:52:12.791Z,13.60
2017-05-23T22:54:41.065Z,13.60
2017-05-23T22:57:09.418Z,13.60
2017-05-23T22:59:37.743Z,13.50
2017-05-23T23:02:06.013Z,13.60
2017-05-23T23:04:33.566Z,13.50
2017-05-23T23:07:01.848Z,13.50
2017-05-23T23:09:30.159Z,13.50
2017-05-23T23:11:58.484Z,13.40
2017-05-23T23:14:26.760Z,13.40
2017-05-23T23:16:55.026Z,13.40
2017-05-23T23:19:23.330Z,13.40
2017-05-23T23:21:51.643Z,13.40
2017-05-23T23:24:19.965Z,13.40
2017-05-23T23:26:48.242Z,13.40
2017-05-23T23:29:16.554Z,13.40
2017-05-23T23:31:44.871Z,13.30
2017-05-23T23:34:13.148Z,13.20
2017-05-23T23:36:41.452Z,13.20
2017-05-23T23:39:09.779Z,13.20
2017-05-23T23:41:38.051Z,13.10
2017-05-23T23:44:06.319Z,13.10
2017-05-23T23:46:34.635Z,13.00
2017-05-23T23:49:02.904Z,12.90
2017-05-23T23:51:31.220Z,12.90
2017-05-23T23:53:59.497Z,12.90
2017-05-23T23:56:27.831Z,12.90
2017-05-23T23:58:56.102Z,12.90
